Time;durP1;ratioP1;P1;durP2;ratioP2;P2;SDS_P1;SDS_P2;PMS_P1;PMS_P2;Temp;Humidity;BMP_temperature;BMP_pressure;BME280_temperature;BME280_humidity;BME280_pressure;Samples;Min_cycle;Max_cycle;Signal;HPM_P1;HPM_P2
2023/12/10 00:01:03;;;;;;;24.27;3.92;;;;;;;8.04;98.71;99692.97;6102616;23;20090;-76
2023/12/10 00:03:30;;;;;;;25.20;3.63;;;;;;;8.03;100.00;99707.38;6101527;23;20094;-76
2023/12/10 00:05:57;;;;;;;25.58;3.55;;;;;;;7.96;100.00;99703.16;6102361;23;20046;-76
2023/12/10 00:08:36;;;;;;;24.50;3.80;;;;;;;7.90;100.00;99715.53;6101883;23;20095;-76
2023/12/10 00:11:03;;;;;;;23.75;4.05;;;;;;;7.84;100.00;99712.00;6102092;23;20158;-76
2023/12/10 00:13:30;;;;;;;25.25;4.30;;;;;;;7.78;100.00;99715.69;6101283;23;20027;-76
2023/12/10 00:15:57;;;;;;;16.73;3.35;;;;;;;7.72;100.00;99710.25;6102153;23;20015;-76
2023/12/10 00:18:23;;;;;;;16.73;3.55;;;;;;;7.67;100.00;99702.91;6101502;23;20043;-76
2023/12/10 00:20:50;;;;;;;18.25;3.65;;;;;;;7.64;100.00;99709.09;6102331;23;20015;-76
2023/12/10 00:23:17;;;;;;;23.88;3.97;;;;;;;7.60;100.00;99706.59;6101454;23;20071;-76
2023/12/10 00:25:45;;;;;;;24.48;3.72;;;;;;;7.56;100.00;99708.69;6101709;23;20071;-76
2023/12/10 00:28:13;;;;;;;20.10;3.60;;;;;;;7.54;100.00;99705.00;6101869;23;20025;-76
2023/12/10 00:30:42;;;;;;;24.40;3.80;;;;;;;7.52;100.00;99705.44;6101779;23;20082;-76
2023/12/10 00:33:09;;;;;;;22.50;3.08;;;;;;;7.49;100.00;99708.97;6076695;23;20027;-76
2023/12/10 00:35:36;;;;;;;22.55;3.90;;;;;;;7.48;100.00;99712.81;6102040;23;20057;-76
2023/12/10 00:38:02;;;;;;;21.45;3.50;;;;;;;7.45;100.00;99721.63;6102019;23;20019;-76
2023/12/10 00:40:29;;;;;;;20.92;3.13;;;;;;;7.43;100.00;99720.59;6100916;23;20019;-76
2023/12/10 00:42:58;;;;;;;28.38;4.05;;;;;;;7.40;100.00;99711.63;6101910;23;20026;-76
2023/12/10 00:45:25;;;;;;;25.40;3.42;;;;;;;7.42;100.00;99716.47;6101436;23;20019;-76
2023/12/10 00:47:52;;;;;;;22.20;3.45;;;;;;;7.39;100.00;99715.44;6102128;23;20022;-76
2023/12/10 00:50:18;;;;;;;13.63;2.78;;;;;;;7.38;100.00;99715.88;6101554;23;20025;-76
2023/12/10 00:52:46;;;;;;;20.83;4.13;;;;;;;7.36;100.00;99717.06;6101585;23;20111;-76
2023/12/10 00:55:13;;;;;;;28.92;4.65;;;;;;;7.35;100.00;99717.50;6101578;23;20074;-76
2023/12/10 00:57:40;;;;;;;18.42;3.58;;;;;;;7.31;100.00;99714.25;6102231;23;20090;-76
2023/12/10 01:00:07;;;;;;;20.35;3.00;;;;;;;7.30;100.00;99721.47;6102156;23;20019;-76
2023/12/10 01:02:39;;;;;;;19.35;3.33;;;;;;;7.30;100.00;99715.44;6076415;23;20015;-76
2023/12/10 01:05:06;;;;;;;24.42;3.90;;;;;;;7.26;100.00;99712.94;6101950;23;20019;-76
2023/12/10 01:07:33;;;;;;;18.00;2.92;;;;;;;7.25;100.00;99716.75;6101425;23;20015;-76
2023/12/10 01:09:59;;;;;;;16.73;2.70;;;;;;;7.25;100.00;99721.31;6102138;23;20535;-76
2023/12/10 01:12:26;;;;;;;18.33;3.20;;;;;;;7.25;100.00;99731.91;6101106;23;20026;-76
2023/12/10 01:14:53;;;;;;;21.02;3.22;;;;;;;7.24;100.00;99727.78;6102130;23;20401;-76
2023/12/10 01:17:20;;;;;;;24.88;3.45;;;;;;;7.22;100.00;99725.56;6101517;23;20019;-76
2023/12/10 01:19:47;;;;;;;24.33;3.13;;;;;;;7.21;100.00;99726.75;6101902;23;20026;-77
2023/12/10 01:22:14;;;;;;;23.63;3.60;;;;;;;7.20;100.00;99727.19;6101733;23;20019;-76
2023/12/10 01:24:41;;;;;;;15.73;3.45;;;;;;;7.19;100.00;99731.78;6101511;23;20015;-76
2023/12/10 01:27:09;;;;;;;14.45;3.03;;;;;;;7.18;100.00;99727.66;6102169;23;20019;-76
2023/12/10 01:29:35;;;;;;;18.92;3.17;;;;;;;7.17;100.00;99731.47;6101718;23;20023;-76
2023/12/10 01:32:02;;;;;;;14.65;2.83;;;;;;;7.17;100.00;99728.09;6101525;23;20019;-76
2023/12/10 01:34:29;;;;;;;22.33;3.05;;;;;;;7.15;100.00;99725.88;6101058;23;20019;-76
2023/12/10 01:36:56;;;;;;;14.20;3.13;;;;;;;7.16;100.00;99729.28;6101705;23;20015;-76
2023/12/10 01:39:22;;;;;;;26.67;3.38;;;;;;;7.15;100.00;99723.25;6101247;23;20018;-76
2023/12/10 01:41:49;;;;;;;26.20;3.63;;;;;;;7.15;100.00;99723.25;6101158;23;20026;-76
2023/12/10 01:44:16;;;;;;;16.60;3.70;;;;;;;7.15;100.00;99730.44;6101394;23;20437;-76
2023/12/10 01:46:45;;;;;;;15.27;3.05;;;;;;;7.12;100.00;99723.38;6101756;23;20049;-76
2023/12/10 01:49:12;;;;;;;17.42;2.80;;;;;;;7.13;100.00;99735.44;6075853;23;20026;-76
2023/12/10 01:51:40;;;;;;;15.85;3.30;;;;;;;7.13;100.00;99738.09;6101071;23;20828;-76
2023/12/10 01:54:08;;;;;;;21.83;3.30;;;;;;;7.11;100.00;99732.50;6101391;23;20023;-76
2023/12/10 01:56:35;;;;;;;17.73;3.22;;;;;;;7.11;100.00;99741.16;6101144;23;20015;-76
2023/12/10 01:59:02;;;;;;;24.35;2.97;;;;;;;7.10;100.00;99744.25;6101721;23;20071;-76
2023/12/10 02:01:29;;;;;;;13.77;3.30;;;;;;;7.09;100.00;99748.81;6101194;23;20026;-76
2023/12/10 02:03:56;;;;;;;25.73;3.08;;;;;;;7.08;100.00;99738.66;6075930;23;20019;-76
2023/12/10 02:06:25;;;;;;;20.92;3.42;;;;;;;7.07;100.00;99748.50;6100754;23;20015;-76
2023/12/10 02:08:52;;;;;;;24.98;3.75;;;;;;;7.06;100.00;99751.59;6101881;23;20018;-76
2023/12/10 02:11:19;;;;;;;18.45;3.30;;;;;;;7.05;100.00;99763.34;6101560;23;20023;-76
2023/12/10 02:13:46;;;;;;;24.15;4.22;;;;;;;7.04;100.00;99773.19;6101637;23;20030;-76
2023/12/10 02:16:12;;;;;;;21.95;3.00;;;;;;;7.05;100.00;99771.28;6101504;23;20022;-76
2023/12/10 02:18:39;;;;;;;22.17;3.42;;;;;;;7.05;100.00;99777.31;6101165;23;20018;-76
2023/12/10 02:21:07;;;;;;;20.23;3.10;;;;;;;7.03;100.00;99784.97;6101757;23;20025;-76
2023/12/10 02:23:51;;;;;;;17.63;3.72;;;;;;;7.05;100.00;99787.16;6101080;23;20015;-76
2023/12/10 02:26:17;;;;;;;12.32;2.60;;;;;;;7.03;100.00;99780.41;6101480;23;20086;-76
2023/12/10 02:28:44;;;;;;;23.27;3.70;;;;;;;7.02;100.00;99784.22;6101184;23;20019;-76
2023/12/10 02:31:11;;;;;;;18.70;3.10;;;;;;;7.02;100.00;99786.13;6101105;23;20023;-76
2023/12/10 02:33:37;;;;;;;22.45;3.10;;;;;;;7.00;100.00;99794.50;6100881;23;20019;-76
2023/12/10 02:36:04;;;;;;;25.63;3.83;;;;;;;7.00;100.00;99805.09;6101668;23;20026;-76
2023/12/10 02:38:31;;;;;;;13.25;2.92;;;;;;;6.98;100.00;99804.78;6100870;23;20018;-76
2023/12/10 02:40:57;;;;;;;17.08;3.63;;;;;;;6.98;100.00;99798.75;6101112;23;20030;-76
2023/12/10 02:43:24;;;;;;;18.08;4.05;;;;;;;6.96;100.00;99804.50;6100476;23;20861;-76
2023/12/10 02:45:51;;;;;;;13.43;3.22;;;;;;;6.94;100.00;99803.44;6101772;23;20019;-76
2023/12/10 02:48:21;;;;;;;20.08;3.92;;;;;;;6.94;100.00;99798.91;6100593;23;20011;-76
2023/12/10 02:50:50;;;;;;;17.70;3.92;;;;;;;6.92;100.00;99793.31;6101564;23;20027;-76
2023/12/10 02:53:17;;;;;;;17.45;3.50;;;;;;;6.91;100.00;99797.13;6075450;23;20022;-76
2023/12/10 02:55:44;;;;;;;22.00;3.63;;;;;;;6.90;100.00;99803.59;6101236;23;20022;-76
2023/12/10 02:58:10;;;;;;;20.95;3.72;;;;;;;6.91;100.00;99799.03;6101076;23;20014;-76
2023/12/10 03:00:37;;;;;;;23.88;3.65;;;;;;;6.90;100.00;99805.50;6101220;23;20504;-76
2023/12/10 03:03:03;;;;;;;22.42;3.28;;;;;;;6.91;100.00;99799.78;6101413;23;20053;-76
2023/12/10 03:05:30;;;;;;;20.45;3.17;;;;;;;6.91;100.00;99789.19;6100878;23;20015;-76
2023/12/10 03:07:57;;;;;;;24.00;2.95;;;;;;;6.92;100.00;99803.16;6101564;23;20401;-76
2023/12/10 03:10:24;;;;;;;23.17;3.90;;;;;;;6.92;100.00;99795.22;6099685;23;20826;-76
2023/12/10 03:12:51;;;;;;;17.85;3.35;;;;;;;6.93;100.00;99808.00;6101232;23;20499;-76
2023/12/10 03:15:17;;;;;;;31.92;4.00;;;;;;;6.93;100.00;99808.00;6101109;23;20772;-76
2023/12/10 03:17:44;;;;;;;26.98;3.88;;;;;;;6.96;100.00;99811.69;6101060;23;20019;-76
2023/12/10 03:20:12;;;;;;;17.58;3.70;;;;;;;6.95;100.00;99807.56;6101161;23;20023;-76
2023/12/10 03:22:39;;;;;;;18.75;3.10;;;;;;;6.96;100.00;99822.28;6100796;23;20432;-76
2023/12/10 03:25:06;;;;;;;18.45;3.80;;;;;;;6.96;100.00;99828.31;6101288;23;20019;-76
2023/12/10 03:27:33;;;;;;;23.23;3.60;;;;;;;6.97;100.00;99819.19;6100615;23;20022;-76
2023/12/10 03:30:00;;;;;;;20.15;3.17;;;;;;;6.96;100.00;99825.66;6101421;23;20019;-76
2023/12/10 03:32:27;;;;;;;21.80;3.10;;;;;;;6.97;100.00;99815.81;6100750;23;20015;-76
2023/12/10 03:34:54;;;;;;;25.33;4.15;;;;;;;6.97;100.00;99813.16;6101057;23;20410;-76
2023/12/10 03:37:21;;;;;;;15.80;3.58;;;;;;;6.96;100.00;99822.28;6100583;23;20019;-76
2023/12/10 03:39:48;;;;;;;13.52;2.97;;;;;;;6.94;100.00;99825.34;6101309;23;20026;-76
2023/12/10 03:42:14;;;;;;;16.98;4.07;;;;;;;6.95;100.00;99826.84;6100307;23;20539;-76
2023/12/10 03:44:41;;;;;;;19.00;3.40;;;;;;;6.97;100.00;99842.28;6100926;23;20015;-76
2023/12/10 03:47:08;;;;;;;23.58;3.58;;;;;;;6.97;100.00;99829.03;6100792;23;20443;-76
2023/12/10 03:49:34;;;;;;;21.73;3.20;;;;;;;6.95;100.00;99841.97;6100349;23;20476;-76
2023/12/10 03:52:01;;;;;;;23.48;3.65;;;;;;;6.94;100.00;99846.53;6101252;23;20429;-76
2023/12/10 03:54:28;;;;;;;26.02;4.00;;;;;;;6.96;100.00;99838.88;6100338;23;20023;-76
2023/12/10 03:56:54;;;;;;;19.23;2.90;;;;;;;6.96;100.00;99848.72;6100924;23;20082;-76
2023/12/10 03:59:21;;;;;;;15.93;3.63;;;;;;;6.94;100.00;99849.16;6100187;23;20101;-76
2023/12/10 04:01:48;;;;;;;17.65;3.85;;;;;;;6.94;100.00;99865.03;6101035;23;20019;-77
2023/12/10 04:04:15;;;;;;;20.80;3.53;;;;;;;6.94;100.00;99872.25;6100650;23;20015;-76
2023/12/10 04:06:42;;;;;;;20.38;3.50;;;;;;;6.93;100.00;99866.22;6100455;23;20417;-76
2023/12/10 04:09:09;;;;;;;14.60;3.28;;;;;;;6.92;100.00;99874.59;6100713;23;20031;-76
2023/12/10 04:11:36;;;;;;;18.58;3.92;;;;;;;6.92;100.00;99883.25;6100485;23;20021;-76
2023/12/10 04:14:06;;;;;;;24.27;3.40;;;;;;;6.93;100.00;99892.69;6100624;23;20528;-76
2023/12/10 04:16:33;;;;;;;27.02;3.75;;;;;;;6.94;100.00;99877.53;6100073;23;20492;-76
2023/12/10 04:18:59;;;;;;;19.25;2.78;;;;;;;6.95;100.00;99913.41;6101083;23;20019;-76
2023/12/10 04:21:26;;;;;;;14.63;3.47;;;;;;;6.94;100.00;99912.69;6101387;23;20011;-76
2023/12/10 04:23:53;;;;;;;21.40;2.58;;;;;;;6.93;100.00;99910.47;6102449;23;20071;-77
2023/12/10 04:26:21;;;;;;;27.92;3.33;;;;;;;6.94;100.00;99907.38;6102126;23;20022;-76
2023/12/10 04:28:48;;;;;;;26.25;3.38;;;;;;;6.94;100.00;99919.88;6102217;23;20058;-76
2023/12/10 04:31:15;;;;;;;21.58;3.53;;;;;;;6.95;100.00;99916.06;6076318;23;20018;-76
2023/12/10 04:33:44;;;;;;;20.52;3.83;;;;;;;6.98;100.00;99926.50;6076484;23;20026;-76
2023/12/10 04:36:12;;;;;;;23.05;3.72;;;;;;;6.99;100.00;99932.53;6075735;23;20090;-76
2023/12/10 04:38:39;;;;;;;19.77;3.08;;;;;;;6.99;100.00;99930.63;6102063;23;20082;-76
2023/12/10 04:41:05;;;;;;;20.77;3.15;;;;;;;7.01;100.00;99927.56;6101872;23;20050;-76
2023/12/10 04:43:32;;;;;;;24.45;3.47;;;;;;;7.03;100.00;99944.47;6101086;23;20019;-76
2023/12/10 04:45:59;;;;;;;18.42;4.03;;;;;;;7.04;100.00;99958.44;6102148;23;20134;-76
2023/12/10 04:48:26;;;;;;;21.27;3.60;;;;;;;7.05;100.00;99956.53;6102121;23;20583;-76
2023/12/10 04:50:53;;;;;;;18.88;3.08;;;;;;;7.03;100.00;99939.19;6102849;23;20086;-76
2023/12/10 04:53:19;;;;;;;17.83;3.38;;;;;;;7.05;100.00;99953.91;6101766;23;20023;-76
2023/12/10 04:55:46;;;;;;;20.55;2.95;;;;;;;7.07;100.00;99951.56;6101693;23;20447;-76
2023/12/10 04:58:12;;;;;;;18.35;3.42;;;;;;;7.10;100.00;99963.94;6101510;23;20457;-76
2023/12/10 05:00:39;;;;;;;25.70;3.58;;;;;;;7.11;100.00;99966.13;6101815;23;20022;-76
2023/12/10 05:03:06;;;;;;;16.25;3.25;;;;;;;7.14;100.00;99953.94;6102220;23;20468;-76
2023/12/10 05:05:33;;;;;;;30.60;4.55;;;;;;;7.15;100.00;99958.81;6101539;23;20019;-76
2023/12/10 05:07:59;;;;;;;15.57;3.50;;;;;;;7.13;100.00;99963.78;6102105;23;20023;-76
2023/12/10 05:10:26;;;;;;;11.18;2.90;;;;;;;7.15;100.00;99976.59;6101205;23;20074;-76
2023/12/10 05:12:57;;;;;;;17.17;2.85;;;;;;;7.19;100.00;99958.69;6101635;23;20014;-76
2023/12/10 05:15:23;;;;;;;25.73;3.50;;;;;;;7.23;100.00;99973.22;6101393;23;20015;-76
2023/12/10 05:17:50;;;;;;;22.77;3.30;;;;;;;7.25;100.00;99991.34;6102170;23;20043;-76
2023/12/10 05:20:17;;;;;;;26.33;4.07;;;;;;;7.30;100.00;99985.47;6101517;23;20014;-76
2023/12/10 05:22:43;;;;;;;18.25;2.88;;;;;;;7.35;100.00;99990.22;6101891;23;20019;-76
2023/12/10 05:25:11;;;;;;;19.38;3.70;;;;;;;7.39;100.00;99998.75;6101704;23;20015;-76
2023/12/10 05:27:38;;;;;;;22.83;3.20;;;;;;;7.45;100.00;100004.97;6101234;23;20079;-76
2023/12/10 05:30:05;;;;;;;13.50;3.03;;;;;;;7.52;100.00;99998.69;6101806;23;20424;-76
2023/12/10 05:32:32;;;;;;;24.00;2.75;;;;;;;7.54;100.00;100012.22;6100645;23;20015;-76
2023/12/10 05:34:58;;;;;;;17.08;3.42;;;;;;;7.54;100.00;100007.66;6101761;23;20101;-74
2023/12/10 05:37:25;;;;;;;16.67;3.45;;;;;;;7.58;100.00;100018.13;6101119;23;20461;-75
2023/12/10 05:39:52;;;;;;;20.90;3.67;;;;;;;7.55;100.00;100025.03;6102244;23;20019;-75
2023/12/10 05:42:19;;;;;;;17.15;3.05;;;;;;;7.54;100.00;100018.25;6100783;23;20071;-74
2023/12/10 05:44:46;;;;;;;16.77;2.97;;;;;;;7.55;100.00;100027.69;6101730;23;20019;-74
2023/12/10 05:47:12;;;;;;;16.58;3.00;;;;;;;7.55;100.00;100040.19;6076058;23;20023;-74
2023/12/10 05:49:39;;;;;;;20.52;2.42;;;;;;;7.51;100.00;100047.53;6101448;23;20401;-74
2023/12/10 05:52:06;;;;;;;16.35;3.10;;;;;;;7.53;100.00;100045.91;6076284;23;20098;-74
2023/12/10 05:54:32;;;;;;;23.27;3.47;;;;;;;7.54;100.00;100050.03;6101036;23;20461;-75
2023/12/10 05:56:59;;;;;;;19.13;3.60;;;;;;;7.55;100.00;100071.97;6101830;23;20071;-75
2023/12/10 05:59:25;;;;;;;14.55;2.67;;;;;;;7.61;100.00;100062.25;6101107;23;20015;-75
2023/12/10 06:01:52;;;;;;;18.67;3.42;;;;;;;7.64;100.00;100074.63;6101808;23;20421;-75
2023/12/10 06:04:19;;;;;;;18.13;2.58;;;;;;;7.63;100.00;100095.09;6101474;23;20468;-75
2023/12/10 06:06:46;;;;;;;22.58;3.60;;;;;;;7.63;100.00;100100.41;6101389;23;20023;-76
2023/12/10 06:09:14;;;;;;;17.48;3.30;;;;;;;7.64;100.00;100096.56;6101658;23;20015;-76
2023/12/10 06:11:41;;;;;;;23.50;3.60;;;;;;;7.63;100.00;100111.00;6101290;23;20047;-75
2023/12/10 06:14:07;;;;;;;17.67;3.38;;;;;;;7.63;100.00;100134.84;6101678;23;20480;-75
2023/12/10 06:16:34;;;;;;;14.02;3.50;;;;;;;7.65;100.00;100116.59;6100912;23;20023;-76
2023/12/10 06:19:01;;;;;;;15.85;3.20;;;;;;;7.68;100.00;100133.53;6101883;23;20014;-75
2023/12/10 06:21:27;;;;;;;14.40;2.55;;;;;;;7.67;100.00;100113.50;6100977;23;20401;-75
2023/12/10 06:23:54;;;;;;;18.48;3.63;;;;;;;7.69;100.00;100142.97;6101457;23;20070;-75
2023/12/10 06:26:21;;;;;;;20.95;3.38;;;;;;;7.69;100.00;100154.28;6101531;23;20070;-75
2023/12/10 06:28:47;;;;;;;19.60;3.30;;;;;;;7.69;100.00;100164.91;6101594;23;20019;-76
2023/12/10 06:31:14;;;;;;;20.13;3.67;;;;;;;7.68;100.00;100163.41;6101567;23;20381;-75
2023/12/10 06:33:43;;;;;;;17.73;3.08;;;;;;;7.70;100.00;100165.63;6075335;23;20297;-75
2023/12/10 06:36:09;;;;;;;19.73;2.88;;;;;;;7.76;100.00;100179.06;6101655;23;20073;-76
2023/12/10 06:38:37;;;;;;;16.30;2.58;;;;;;;7.73;100.00;100190.53;6100646;23;20019;-76
2023/12/10 06:41:04;;;;;;;21.77;3.25;;;;;;;7.74;100.00;100178.75;6101190;23;20053;-76
2023/12/10 06:43:30;;;;;;;17.80;3.25;;;;;;;7.75;100.00;100198.78;6099955;23;20127;-76
2023/12/10 06:46:00;;;;;;;17.17;2.60;;;;;;;7.76;100.00;100192.31;6101579;23;20041;-75
2023/12/10 06:48:27;;;;;;;19.08;3.33;;;;;;;7.77;100.00;100218.38;6100925;23;20015;-75
2023/12/10 06:50:54;;;;;;;12.77;2.95;;;;;;;7.79;100.00;100228.53;6101387;23;20015;-76
2023/12/10 06:53:21;;;;;;;15.57;2.85;;;;;;;7.82;100.00;100239.03;6100743;23;20062;-76
2023/12/10 06:55:48;;;;;;;16.38;3.72;;;;;;;7.84;100.00;100220.03;6101715;23;20054;-75
2023/12/10 06:58:15;;;;;;;18.17;2.83;;;;;;;7.83;100.00;100232.56;6075590;23;20047;-74
2023/12/10 07:00:42;;;;;;;22.52;3.00;;;;;;;7.84;100.00;100228.72;6101139;23;20046;-75
2023/12/10 07:03:08;;;;;;;15.23;3.17;;;;;;;7.88;100.00;100236.56;6101691;23;20019;-75
2023/12/10 07:05:35;;;;;;;18.30;3.78;;;;;;;7.91;99.95;100254.25;6100653;23;20029;-74
2023/12/10 07:08:02;;;;;;;22.70;3.38;;;;;;;7.93;100.00;100257.94;6100959;23;20022;-75
2023/12/10 07:10:29;;;;;;;17.33;3.33;;;;;;;7.94;99.25;100264.00;6100896;23;20015;-74
2023/12/10 07:12:55;;;;;;;14.77;2.75;;;;;;;7.93;99.42;100270.47;6101494;23;20051;-74
2023/12/10 07:15:22;;;;;;;24.10;3.58;;;;;;;7.95;98.80;100276.81;6100224;23;20041;-75
2023/12/10 07:17:49;;;;;;;22.55;3.08;;;;;;;8.00;98.36;100280.78;6101436;23;20083;-75
2023/12/10 07:20:16;;;;;;;16.90;3.17;;;;;;;8.02;97.55;100278.44;6100817;23;20053;-74
2023/12/10 07:22:42;;;;;;;18.15;3.30;;;;;;;8.03;97.05;100285.97;6100492;23;20449;-74
2023/12/10 07:25:09;;;;;;;12.93;2.75;;;;;;;8.04;97.28;100298.06;6101263;23;20074;-75
2023/12/10 07:27:35;;;;;;;27.02;3.60;;;;;;;8.04;97.39;100303.34;6100888;23;20040;-76
2023/12/10 07:30:03;;;;;;;24.77;3.40;;;;;;;8.02;97.55;100310.25;6101181;23;20042;-76
2023/12/10 07:32:30;;;;;;;26.42;4.05;;;;;;;8.05;97.78;100309.41;6100571;23;20019;-75
2023/12/10 07:34:57;;;;;;;25.40;3.33;;;;;;;8.05;97.36;100309.41;6075812;23;20027;-77
2023/12/10 07:37:24;;;;;;;15.60;3.30;;;;;;;8.04;97.32;100329.13;6100523;23;20019;-77
2023/12/10 07:39:50;;;;;;;20.17;3.10;;;;;;;8.04;96.93;100321.91;6101571;23;20014;-77
2023/12/10 07:42:17;;;;;;;24.50;2.78;;;;;;;8.04;97.24;100334.44;6099796;23;20019;-78
2023/12/10 07:44:43;;;;;;;19.85;3.40;;;;;;;8.03;96.66;100330.28;6101524;23;20023;-76
2023/12/10 07:47:10;;;;;;;25.10;3.80;;;;;;;8.05;96.46;100330.59;6100769;23;20049;-76
2023/12/10 07:49:39;;;;;;;18.15;2.78;;;;;;;8.08;96.60;100344.91;6100811;23;20015;-76
2023/12/10 07:52:06;;;;;;;22.27;3.17;;;;;;;8.10;95.96;100347.88;6100918;23;20057;-74
2023/12/10 07:54:33;;;;;;;15.07;2.47;;;;;;;8.09;95.76;100378.22;6074734;23;20109;-74
2023/12/10 07:57:00;;;;;;;17.05;2.50;;;;;;;8.10;95.91;100383.09;6102083;23;20014;-74
2023/12/10 07:59:26;;;;;;;14.90;2.88;;;;;;;8.10;96.00;100372.47;6101408;23;20393;-75
2023/12/10 08:01:54;;;;;;;14.27;3.00;;;;;;;8.09;95.56;100378.22;6102023;23;20015;-77
2023/12/10 08:04:21;;;;;;;26.92;3.65;;;;;;;8.09;95.69;100402.81;6101161;23;20532;-77
2023/12/10 08:06:48;;;;;;;12.27;2.78;;;;;;;8.12;95.72;100403.84;6101476;23;20067;-77
2023/12/10 08:09:14;;;;;;;20.52;2.63;;;;;;;8.11;95.50;100408.41;6101631;23;20067;-77
2023/12/10 08:11:41;;;;;;;17.77;3.05;;;;;;;8.14;95.86;100418.16;6101859;23;20014;-77
2023/12/10 08:14:09;;;;;;;15.20;2.60;;;;;;;8.12;94.81;100404.59;6102098;23;20075;-76
2023/12/10 08:16:36;;;;;;;15.90;2.50;;;;;;;8.11;95.10;100413.72;6101843;23;20015;-76
2023/12/10 08:19:04;;;;;;;19.88;2.65;;;;;;;8.14;94.87;100412.13;6102294;23;20019;-76
2023/12/10 08:21:31;;;;;;;10.82;2.63;;;;;;;8.14;94.63;100406.81;6101396;23;20015;-76
2023/12/10 08:23:58;;;;;;;20.33;3.05;;;;;;;8.16;94.51;100426.44;6102298;23;20051;-76
2023/12/10 08:26:25;;;;;;;9.95;2.65;;;;;;;8.15;94.21;100438.22;6076323;23;20019;-76
2023/12/10 08:28:51;;;;;;;15.65;2.90;;;;;;;8.13;94.48;100424.63;6102443;23;20541;-76
2023/12/10 08:31:18;;;;;;;27.35;3.17;;;;;;;8.14;94.44;100420.81;6101636;23;20063;-76
2023/12/10 08:33:46;;;;;;;8.65;2.53;;;;;;;8.14;94.01;100431.44;6101910;23;20029;-76
2023/12/10 08:36:16;;;;;;;15.88;2.97;;;;;;;8.16;94.37;100431.75;6101782;23;20103;-76
2023/12/10 08:38:42;;;;;;;15.68;2.63;;;;;;;8.16;93.84;100438.94;6102077;23;20019;-76
2023/12/10 08:41:09;;;;;;;17.77;2.70;;;;;;;8.16;93.73;100439.69;6076729;23;20516;-75
2023/12/10 08:43:37;;;;;;;13.52;2.75;;;;;;;8.15;93.80;100446.16;6101933;23;20050;-75
2023/12/10 08:46:04;;;;;;;15.52;3.00;;;;;;;8.16;93.63;100446.91;6102097;23;20015;-77
2023/12/10 08:48:31;;;;;;;9.45;2.00;;;;;;;8.15;93.77;100440.13;6100863;23;20071;-75
2023/12/10 08:50:58;;;;;;;15.63;3.40;;;;;;;8.18;93.72;100463.13;6101705;23;20022;-75
2023/12/10 08:53:24;;;;;;;24.95;3.10;;;;;;;8.16;93.76;100447.66;6101034;23;20019;-75
2023/12/10 08:55:51;;;;;;;19.73;2.85;;;;;;;8.18;93.46;100474.47;6076586;23;20027;-73
2023/12/10 08:58:18;;;;;;;22.05;3.72;;;;;;;8.17;93.19;100473.00;6101733;23;20074;-74
2023/12/10 09:00:44;;;;;;;21.52;2.83;;;;;;;8.18;93.23;100473.75;6101537;23;20021;-74
2023/12/10 09:03:11;;;;;;;16.80;3.10;;;;;;;8.17;93.57;100490.81;6101597;23;20011;-74
2023/12/10 09:05:38;;;;;;;17.92;2.67;;;;;;;8.16;93.94;100482.13;6101286;23;20019;-74
2023/12/10 09:08:06;;;;;;;15.70;2.88;;;;;;;8.18;93.72;100493.03;6075407;23;20078;-74
2023/12/10 09:10:33;;;;;;;22.08;3.63;;;;;;;8.19;93.34;100507.78;6101674;23;20015;-74
2023/12/10 09:13:00;;;;;;;17.23;3.33;;;;;;;8.20;93.87;100511.91;6102167;23;20023;-74
2023/12/10 09:15:26;;;;;;;16.02;2.88;;;;;;;8.19;92.91;100510.44;6101260;23;20488;-75
2023/12/10 09:17:53;;;;;;;18.65;3.03;;;;;;;8.21;93.18;100516.06;6101720;23;20099;-74
2023/12/10 09:20:20;;;;;;;12.90;2.15;;;;;;;8.22;93.28;100514.88;6101934;23;20476;-75
2023/12/10 09:22:47;;;;;;;14.80;2.65;;;;;;;8.22;93.53;100530.06;6102086;23;20019;-75
2023/12/10 09:25:14;;;;;;;13.65;2.88;;;;;;;8.23;93.60;100529.63;6101948;23;20054;-75
2023/12/10 09:27:41;;;;;;;14.05;2.75;;;;;;;8.24;93.27;100533.75;6101592;23;20817;-75
2023/12/10 09:30:08;;;;;;;16.48;2.90;;;;;;;8.25;93.39;100545.84;6098899;23;20074;-75
2023/12/10 09:32:35;;;;;;;15.55;2.60;;;;;;;8.29;93.40;100541.19;6075256;23;20540;-74
2023/12/10 09:35:04;;;;;;;20.45;2.80;;;;;;;8.30;92.52;100547.97;6100603;23;20029;-75
2023/12/10 09:37:31;;;;;;;23.45;3.40;;;;;;;8.33;92.95;100546.41;6100290;23;20053;-75
2023/12/10 09:39:58;;;;;;;16.98;2.50;;;;;;;8.34;92.70;100535.38;6100504;23;20019;-74
2023/12/10 09:42:24;;;;;;;17.55;2.85;;;;;;;8.37;92.97;100540.97;6100414;23;20018;-75
2023/12/10 09:44:51;;;;;;;12.50;2.15;;;;;;;8.38;92.77;100543.22;6100900;23;20022;-75
2023/12/10 09:47:19;;;;;;;13.05;2.35;;;;;;;8.42;92.43;100529.81;6075402;23;20460;-75
2023/12/10 09:49:47;;;;;;;15.15;2.40;;;;;;;8.46;92.25;100525.88;6100523;23;20011;-75
2023/12/10 09:52:13;;;;;;;15.80;2.97;;;;;;;8.48;91.92;100528.09;6100892;23;20031;-75
2023/12/10 09:54:41;;;;;;;16.67;2.88;;;;;;;8.49;91.78;100532.97;6075048;23;20805;-75
2023/12/10 09:57:11;;;;;;;11.70;2.55;;;;;;;8.51;92.13;100527.22;6101371;23;20074;-76
2023/12/10 09:59:38;;;;;;;14.48;2.50;;;;;;;8.54;91.91;100529.78;6100735;23;20014;-78
2023/12/10 10:02:06;;;;;;;10.27;2.35;;;;;;;8.56;91.58;100535.41;6101497;23;20054;-76
2023/12/10 10:04:33;;;;;;;10.50;2.50;;;;;;;8.59;91.50;100523.19;6100757;23;20015;-76
2023/12/10 10:07:04;;;;;;;17.23;2.92;;;;;;;8.60;91.27;100536.00;6101457;23;20449;-77
2023/12/10 10:09:37;;;;;;;;;;;;;;;8.65;92.51;100519.53;6100625;23;20011;-76
2023/12/10 10:12:05;;;;;;;21.85;2.70;;;;;;;8.68;91.06;100526.66;6101393;23;19981;-76
2023/12/10 10:14:32;;;;;;;22.40;3.22;;;;;;;8.75;90.40;100530.25;6100331;23;20025;-76
2023/12/10 10:16:58;;;;;;;14.45;2.92;;;;;;;8.80;89.99;100517.13;6101367;23;20015;-76
2023/12/10 10:19:25;;;;;;;20.63;2.58;;;;;;;8.84;90.17;100522.31;6100222;23;20019;-76
2023/12/10 10:21:53;;;;;;;17.40;2.72;;;;;;;8.84;90.43;100525.72;6101595;23;20094;-76
2023/12/10 10:24:20;;;;;;;14.88;2.67;;;;;;;8.83;90.53;100531.44;6101124;23;20015;-76
2023/12/10 10:26:48;;;;;;;15.98;3.22;;;;;;;8.81;90.08;100531.88;6101177;23;20033;-76
2023/12/10 10:29:15;;;;;;;22.75;3.13;;;;;;;8.83;89.94;100529.53;6100604;23;20019;-76
2023/12/10 10:31:44;;;;;;;15.35;2.78;;;;;;;8.83;90.04;100534.09;6100568;23;20457;-76
2023/12/10 10:34:14;;;;;;;10.80;3.10;;;;;;;8.85;89.68;100532.50;6075368;23;20092;-76
2023/12/10 10:36:41;;;;;;;10.10;2.22;;;;;;;8.87;89.53;100524.84;6075389;23;20018;-77
2023/12/10 10:39:08;;;;;;;12.80;2.75;;;;;;;8.87;89.96;100530.16;6075445;23;20063;-76
2023/12/10 10:41:35;;;;;;;12.40;2.72;;;;;;;8.88;89.55;100533.56;6100325;23;20804;-76
2023/12/10 10:44:02;;;;;;;15.40;2.70;;;;;;;8.90;89.84;100549.78;6101143;23;20023;-76
2023/12/10 10:46:29;;;;;;;17.90;3.00;;;;;;;8.92;90.06;100550.09;6100098;23;20043;-76
2023/12/10 10:48:57;;;;;;;13.52;2.65;;;;;;;8.94;89.86;100545.09;6100404;23;20007;-76
2023/12/10 10:51:27;;;;;;;17.42;2.72;;;;;;;8.96;89.15;100561.34;6099696;23;20081;-76
2023/12/10 10:53:56;;;;;;;18.23;2.80;;;;;;;8.99;89.68;100563.13;6101069;23;20019;-76
2023/12/10 10:56:26;;;;;;;12.85;2.72;;;;;;;9.01;89.57;100566.84;6100215;23;20026;-77
2023/12/10 10:58:53;;;;;;;16.25;3.90;;;;;;;9.01;89.95;100561.53;6101095;23;20014;-76
2023/12/10 11:01:37;;;;;;;16.30;2.90;;;;;;;9.07;89.81;100539.75;6100132;23;20027;-77
2023/12/10 11:04:04;;;;;;;16.52;2.47;;;;;;;9.09;89.60;100546.09;6075434;23;20098;-76
2023/12/10 11:06:35;;;;;;;14.52;2.80;;;;;;;9.11;89.93;100543.00;6100745;23;20025;-76
2023/12/10 11:09:02;;;;;;;15.10;3.10;;;;;;;9.09;89.76;100543.44;6101074;23;20050;-76
2023/12/10 11:11:28;;;;;;;20.17;2.90;;;;;;;9.09;89.18;100535.47;6100153;23;20019;-76
2023/12/10 11:13:57;;;;;;;16.45;2.45;;;;;;;9.09;89.30;100534.75;6075183;23;20078;-75
2023/12/10 11:16:24;;;;;;;9.65;2.80;;;;;;;9.09;89.02;100524.88;6099803;23;20018;-76
2023/12/10 11:18:57;;;;;;;14.38;2.47;;;;;;;9.07;88.68;100527.22;6100805;23;20061;-76
2023/12/10 11:21:24;;;;;;;13.55;3.00;;;;;;;9.07;88.17;100527.22;6099823;23;20023;-75
2023/12/10 11:23:52;;;;;;;17.92;2.75;;;;;;;9.06;88.51;100528.38;6101566;23;20015;-75